Woody, California
Current Conditions -  °F | °C
As of 6:54 PM on Wednesday 22 Oct 2014 (Local Time) from KBFL Reporting Station
Clear Clear  
Wind Chill: 69°   Ceiling: Unl
Heat Index: 69°   Visibility: 10mi
Dew Point: 46°   Wind: 3mph
Humidity: 44%   Direction: 330°NNW
Pressure: 30.01"   Gusts: NA
Location:  35.66°N, 118.81°W
Report Text: KBFL 230154Z 33003KT 10SM CLR 21/08 A3001 RMK AO2 SLP160 T02060078
Loading
Personal Weather Stations






























Interactive Weather Map
Tropical Storm Tracking
New forecast layout! Learn more

10-Day Weather Forecast

Advertisements
Track Severe Weather on mobile